Weather at Campo di volo Pogliano Fly [CLOSED]

Public forecast

Using degrees Celsius for public forecast. Weather courtesy of forecast.io.

Closest aviation weather report (METAR) to Campo di volo Pogliano Fly

Closest report is Gioia Del Colle Air Base, 18.2 nm (33.8 km) SW.

2024/05/30 02:55 (retrieved 1 hour ago)

LIBV 300255Z 00000KT 9999 FEW013 12/10 Q1011

Closest aviation forecast (TAF) to Campo di volo Pogliano Fly

Forecast is more than 6 hours old.

Closest forecast is Foggia "Gino Lisa" Airport, 78.4 nm (145.3 km) WNW.

2024/05/29 18:00 Ammendment (retrieved 10 hours ago)

TAF AMD LIBF 292123Z 2918/3018 CNL